sensor_id;sensor_type;location;lat;lon;timestamp;temperature;humidity
18894;DHT22;9579;49.488;8.226;2023-03-14T00:00:53;12.70;99.90
18894;DHT22;9579;49.488;8.226;2023-03-14T00:03:41;12.70;99.90
18894;DHT22;9579;49.488;8.226;2023-03-14T00:06:30;12.80;99.90
18894;DHT22;9579;49.488;8.226;2023-03-14T00:09:17;12.70;99.90
18894;DHT22;9579;49.488;8.226;2023-03-14T00:12:05;12.70;99.90
18894;DHT22;9579;49.488;8.226;2023-03-14T00:14:53;12.70;99.90
18894;DHT22;9579;49.488;8.226;2023-03-14T00:17:43;12.70;99.90
18894;DHT22;9579;49.488;8.226;2023-03-14T00:20:30;12.80;99.90
18894;DHT22;9579;49.488;8.226;2023-03-14T00:23:18;12.80;99.90
18894;DHT22;9579;49.488;8.226;2023-03-14T00:26:09;12.80;99.90
18894;DHT22;9579;49.488;8.226;2023-03-14T00:28:56;12.80;99.90
18894;DHT22;9579;49.488;8.226;2023-03-14T00:31:43;12.80;99.90
18894;DHT22;9579;49.488;8.226;2023-03-14T00:34:30;12.80;99.90
18894;DHT22;9579;49.488;8.226;2023-03-14T00:37:17;12.70;99.90
18894;DHT22;9579;49.488;8.226;2023-03-14T00:40:07;12.70;99.90
18894;DHT22;9579;49.488;8.226;2023-03-14T00:42:54;12.70;99.90
18894;DHT22;9579;49.488;8.226;2023-03-14T00:45:41;12.70;99.90
18894;DHT22;9579;49.488;8.226;2023-03-14T00:48:28;12.70;99.90
18894;DHT22;9579;49.488;8.226;2023-03-14T00:51:15;12.50;99.90
18894;DHT22;9579;49.488;8.226;2023-03-14T00:54:02;12.50;99.90
18894;DHT22;9579;49.488;8.226;2023-03-14T00:56:51;12.60;99.90
18894;DHT22;9579;49.488;8.226;2023-03-14T00:59:38;12.60;99.90
18894;DHT22;9579;49.488;8.226;2023-03-14T01:02:25;12.60;99.90
18894;DHT22;9579;49.488;8.226;2023-03-14T01:05:12;12.50;99.90
18894;DHT22;9579;49.488;8.226;2023-03-14T01:07:59;12.50;99.90
18894;DHT22;9579;49.488;8.226;2023-03-14T01:10:46;12.40;99.90
18894;DHT22;9579;49.488;8.226;2023-03-14T01:13:35;12.50;99.90
18894;DHT22;9579;49.488;8.226;2023-03-14T01:16:24;12.40;99.90
18894;DHT22;9579;49.488;8.226;2023-03-14T01:19:11;12.40;99.90
18894;DHT22;9579;49.488;8.226;2023-03-14T01:21:58;12.40;99.90
18894;DHT22;9579;49.488;8.226;2023-03-14T01:24:45;12.40;99.90
18894;DHT22;9579;49.488;8.226;2023-03-14T01:27:32;12.40;99.90
18894;DHT22;9579;49.488;8.226;2023-03-14T01:30:21;12.40;99.90
18894;DHT22;9579;49.488;8.226;2023-03-14T01:33:08;12.40;99.90
18894;DHT22;9579;49.488;8.226;2023-03-14T01:35:57;12.50;99.90
18894;DHT22;9579;49.488;8.226;2023-03-14T01:38:44;12.50;99.90
18894;DHT22;9579;49.488;8.226;2023-03-14T01:41:31;12.40;99.90
18894;DHT22;9579;49.488;8.226;2023-03-14T01:44:18;12.40;99.90
18894;DHT22;9579;49.488;8.226;2023-03-14T01:47:07;12.40;99.90
18894;DHT22;9579;49.488;8.226;2023-03-14T01:49:57;12.40;99.90
18894;DHT22;9579;49.488;8.226;2023-03-14T01:52:48;12.40;99.90
18894;DHT22;9579;49.488;8.226;2023-03-14T01:55:38;12.30;99.90
18894;DHT22;9579;49.488;8.226;2023-03-14T01:58:27;12.40;99.90
18894;DHT22;9579;49.488;8.226;2023-03-14T02:01:18;12.40;99.90
18894;DHT22;9579;49.488;8.226;2023-03-14T02:04:08;12.30;99.90
18894;DHT22;9579;49.488;8.226;2023-03-14T02:06:59;12.30;99.90
18894;DHT22;9579;49.488;8.226;2023-03-14T02:09:49;12.40;99.90
18894;DHT22;9579;49.488;8.226;2023-03-14T02:12:36;12.30;99.90
18894;DHT22;9579;49.488;8.226;2023-03-14T02:15:24;12.30;99.90
18894;DHT22;9579;49.488;8.226;2023-03-14T02:18:12;12.30;99.90
18894;DHT22;9579;49.488;8.226;2023-03-14T02:21:05;12.20;99.90
18894;DHT22;9579;49.488;8.226;2023-03-14T02:24:02;12.20;99.90
18894;DHT22;9579;49.488;8.226;2023-03-14T02:27:05;12.10;99.90
18894;DHT22;9579;49.488;8.226;2023-03-14T02:29:54;12.00;99.90
18894;DHT22;9579;49.488;8.226;2023-03-14T02:32:45;12.10;99.90
18894;DHT22;9579;49.488;8.226;2023-03-14T02:35:37;12.10;99.90
18894;DHT22;9579;49.488;8.226;2023-03-14T02:38:30;12.10;99.90
18894;DHT22;9579;49.488;8.226;2023-03-14T02:41:18;12.10;99.90
18894;DHT22;9579;49.488;8.226;2023-03-14T02:44:06;12.10;99.90
18894;DHT22;9579;49.488;8.226;2023-03-14T02:46:53;12.10;99.90
18894;DHT22;9579;49.488;8.226;2023-03-14T02:49:40;12.10;99.90
18894;DHT22;9579;49.488;8.226;2023-03-14T02:52:27;12.00;99.90
18894;DHT22;9579;49.488;8.226;2023-03-14T02:55:19;12.00;99.90
18894;DHT22;9579;49.488;8.226;2023-03-14T02:58:06;12.10;99.90
18894;DHT22;9579;49.488;8.226;2023-03-14T03:00:55;12.10;99.90
18894;DHT22;9579;49.488;8.226;2023-03-14T03:03:42;12.10;99.90
18894;DHT22;9579;49.488;8.226;2023-03-14T03:06:29;12.20;99.90
18894;DHT22;9579;49.488;8.226;2023-03-14T03:09:16;12.20;99.90
18894;DHT22;9579;49.488;8.226;2023-03-14T03:12:03;12.20;99.90
18894;DHT22;9579;49.488;8.226;2023-03-14T03:14:50;12.10;99.90
18894;DHT22;9579;49.488;8.226;2023-03-14T03:17:39;12.20;99.90
18894;DHT22;9579;49.488;8.226;2023-03-14T03:20:26;12.30;99.90
18894;DHT22;9579;49.488;8.226;2023-03-14T03:23:13;12.20;99.90
18894;DHT22;9579;49.488;8.226;2023-03-14T03:26:00;12.20;99.90
18894;DHT22;9579;49.488;8.226;2023-03-14T03:28:50;12.20;99.90
18894;DHT22;9579;49.488;8.226;2023-03-14T03:31:37;12.20;99.90
18894;DHT22;9579;49.488;8.226;2023-03-14T03:34:27;12.20;99.90
18894;DHT22;9579;49.488;8.226;2023-03-14T03:37:14;12.20;99.90
18894;DHT22;9579;49.488;8.226;2023-03-14T03:40:02;12.10;99.90
18894;DHT22;9579;49.488;8.226;2023-03-14T03:42:51;12.20;99.90
18894;DHT22;9579;49.488;8.226;2023-03-14T03:45:38;12.10;99.90
18894;DHT22;9579;49.488;8.226;2023-03-14T03:48:26;12.10;99.90
18894;DHT22;9579;49.488;8.226;2023-03-14T03:51:15;12.10;99.90
18894;DHT22;9579;49.488;8.226;2023-03-14T03:54:02;12.20;99.90
18894;DHT22;9579;49.488;8.226;2023-03-14T03:56:49;12.20;99.90
18894;DHT22;9579;49.488;8.226;2023-03-14T03:59:36;12.10;99.90
18894;DHT22;9579;49.488;8.226;2023-03-14T04:02:25;12.10;99.90
18894;DHT22;9579;49.488;8.226;2023-03-14T04:05:12;12.10;99.90
18894;DHT22;9579;49.488;8.226;2023-03-14T04:08:01;12.10;99.90
18894;DHT22;9579;49.488;8.226;2023-03-14T04:10:48;12.10;99.90
18894;DHT22;9579;49.488;8.226;2023-03-14T04:13:35;12.10;99.90
18894;DHT22;9579;49.488;8.226;2023-03-14T04:16:24;12.10;99.90
18894;DHT22;9579;49.488;8.226;2023-03-14T04:19:11;12.00;99.90
18894;DHT22;9579;49.488;8.226;2023-03-14T04:21:58;12.00;99.90
18894;DHT22;9579;49.488;8.226;2023-03-14T04:24:47;12.00;99.90
18894;DHT22;9579;49.488;8.226;2023-03-14T04:27:33;12.00;99.90
18894;DHT22;9579;49.488;8.226;2023-03-14T04:30:20;12.00;99.90
18894;DHT22;9579;49.488;8.226;2023-03-14T04:33:08;12.20;99.90
18894;DHT22;9579;49.488;8.226;2023-03-14T04:35:55;12.10;99.90
18894;DHT22;9579;49.488;8.226;2023-03-14T04:38:42;12.10;99.90
18894;DHT22;9579;49.488;8.226;2023-03-14T04:41:31;12.10;99.90
18894;DHT22;9579;49.488;8.226;2023-03-14T04:44:18;12.10;99.90
18894;DHT22;9579;49.488;8.226;2023-03-14T04:47:05;12.10;99.90
18894;DHT22;9579;49.488;8.226;2023-03-14T04:49:52;12.00;99.90
18894;DHT22;9579;49.488;8.226;2023-03-14T04:52:39;12.10;99.90
18894;DHT22;9579;49.488;8.226;2023-03-14T04:55:26;12.10;99.90
18894;DHT22;9579;49.488;8.226;2023-03-14T04:58:14;12.00;99.90
18894;DHT22;9579;49.488;8.226;2023-03-14T05:01:02;11.90;99.90
18894;DHT22;9579;49.488;8.226;2023-03-14T05:03:50;12.00;99.90
18894;DHT22;9579;49.488;8.226;2023-03-14T05:06:37;12.00;99.90
18894;DHT22;9579;49.488;8.226;2023-03-14T05:09:25;12.00;99.90
18894;DHT22;9579;49.488;8.226;2023-03-14T05:12:13;12.10;99.90
18894;DHT22;9579;49.488;8.226;2023-03-14T05:15:01;12.10;99.90
18894;DHT22;9579;49.488;8.226;2023-03-14T05:17:55;11.90;99.90
18894;DHT22;9579;49.488;8.226;2023-03-14T05:23:33;12.00;99.90
18894;DHT22;9579;49.488;8.226;2023-03-14T05:26:39;12.00;99.90
18894;DHT22;9579;49.488;8.226;2023-03-14T05:29:40;12.60;99.90
18894;DHT22;9579;49.488;8.226;2023-03-14T05:35:06;12.10;99.90
18894;DHT22;9579;49.488;8.226;2023-03-14T05:37:53;12.10;99.90
18894;DHT22;9579;49.488;8.226;2023-03-14T05:40:41;12.20;99.90
18894;DHT22;9579;49.488;8.226;2023-03-14T05:43:29;11.90;99.90
18894;DHT22;9579;49.488;8.226;2023-03-14T05:46:17;12.20;99.90
18894;DHT22;9579;49.488;8.226;2023-03-14T05:48:56;11.50;99.90
18894;DHT22;9579;49.488;8.226;2023-03-14T05:51:44;12.20;99.90
18894;DHT22;9579;49.488;8.226;2023-03-14T05:57:07;12.40;99.90
18894;DHT22;9579;49.488;8.226;2023-03-14T05:59:54;12.90;99.90
18894;DHT22;9579;49.488;8.226;2023-03-14T06:02:41;12.50;99.90
18894;DHT22;9579;49.488;8.226;2023-03-14T06:05:30;12.50;99.90
18894;DHT22;9579;49.488;8.226;2023-03-14T06:08:19;12.60;99.90
18894;DHT22;9579;49.488;8.226;2023-03-14T06:11:06;12.50;99.90
18894;DHT22;9579;49.488;8.226;2023-03-14T06:13:54;12.50;99.90
18894;DHT22;9579;49.488;8.226;2023-03-14T06:16:41;12.60;99.90
18894;DHT22;9579;49.488;8.226;2023-03-14T06:19:28;13.20;99.90
18894;DHT22;9579;49.488;8.226;2023-03-14T06:22:15;12.60;99.90
18894;DHT22;9579;49.488;8.226;2023-03-14T06:25:05;12.50;99.90
18894;DHT22;9579;49.488;8.226;2023-03-14T06:27:53;10.80;99.90
18894;DHT22;9579;49.488;8.226;2023-03-14T06:30:40;13.20;99.90
18894;DHT22;9579;49.488;8.226;2023-03-14T06:33:27;12.50;99.90
18894;DHT22;9579;49.488;8.226;2023-03-14T06:36:14;12.80;99.90
18894;DHT22;9579;49.488;8.226;2023-03-14T06:39:01;12.20;99.90
18894;DHT22;9579;49.488;8.226;2023-03-14T06:41:49;13.00;99.90
18894;DHT22;9579;49.488;8.226;2023-03-14T06:44:36;12.80;99.90
18894;DHT22;9579;49.488;8.226;2023-03-14T06:47:23;12.30;99.90
18894;DHT22;9579;49.488;8.226;2023-03-14T06:50:10;12.30;99.90
18894;DHT22;9579;49.488;8.226;2023-03-14T06:52:57;12.20;99.90
18894;DHT22;9579;49.488;8.226;2023-03-14T06:55:44;12.40;99.90
18894;DHT22;9579;49.488;8.226;2023-03-14T06:58:33;13.60;99.90
18894;DHT22;9579;49.488;8.226;2023-03-14T07:01:23;12.10;99.90
18894;DHT22;9579;49.488;8.226;2023-03-14T07:04:10;12.00;99.90
18894;DHT22;9579;49.488;8.226;2023-03-14T07:06:57;12.10;99.90
18894;DHT22;9579;49.488;8.226;2023-03-14T07:09:44;12.50;99.90
18894;DHT22;9579;49.488;8.226;2023-03-14T07:12:31;12.00;99.90
18894;DHT22;9579;49.488;8.226;2023-03-14T07:15:20;12.40;99.90
18894;DHT22;9579;49.488;8.226;2023-03-14T07:18:08;13.50;99.90
18894;DHT22;9579;49.488;8.226;2023-03-14T07:20:57;12.10;99.90
18894;DHT22;9579;49.488;8.226;2023-03-14T07:23:59;11.80;99.90
18894;DHT22;9579;49.488;8.226;2023-03-14T07:26:46;12.20;99.90
18894;DHT22;9579;49.488;8.226;2023-03-14T07:29:34;12.30;99.90
18894;DHT22;9579;49.488;8.226;2023-03-14T07:32:24;12.80;99.90
18894;DHT22;9579;49.488;8.226;2023-03-14T07:35:15;12.20;99.90
18894;DHT22;9579;49.488;8.226;2023-03-14T07:38:05;12.20;99.90
18894;DHT22;9579;49.488;8.226;2023-03-14T07:43:40;12.70;99.90
18894;DHT22;9579;49.488;8.226;2023-03-14T07:49:04;12.80;99.90
18894;DHT22;9579;49.488;8.226;2023-03-14T07:51:52;12.70;99.90
18894;DHT22;9579;49.488;8.226;2023-03-14T07:57:14;12.70;99.90
18894;DHT22;9579;49.488;8.226;2023-03-14T08:00:16;12.90;99.90
18894;DHT22;9579;49.488;8.226;2023-03-14T08:03:03;12.80;99.90
18894;DHT22;9579;49.488;8.226;2023-03-14T08:05:52;12.90;99.90
18894;DHT22;9579;49.488;8.226;2023-03-14T08:08:39;13.30;99.90
18894;DHT22;9579;49.488;8.226;2023-03-14T08:11:26;13.60;99.90
18894;DHT22;9579;49.488;8.226;2023-03-14T08:14:13;13.20;99.90
18894;DHT22;9579;49.488;8.226;2023-03-14T08:17:00;13.00;99.90
18894;DHT22;9579;49.488;8.226;2023-03-14T08:19:48;11.30;99.90
18894;DHT22;9579;49.488;8.226;2023-03-14T08:22:36;13.00;99.90
18894;DHT22;9579;49.488;8.226;2023-03-14T08:25:24;13.70;99.90
18894;DHT22;9579;49.488;8.226;2023-03-14T08:28:11;14.60;99.90
18894;DHT22;9579;49.488;8.226;2023-03-14T08:30:59;13.50;99.90
18894;DHT22;9579;49.488;8.226;2023-03-14T08:33:46;13.60;99.90
18894;DHT22;9579;49.488;8.226;2023-03-14T08:36:33;13.70;99.90
18894;DHT22;9579;49.488;8.226;2023-03-14T08:39:23;13.10;99.90
18894;DHT22;9579;49.488;8.226;2023-03-14T08:42:12;12.40;99.90
18894;DHT22;9579;49.488;8.226;2023-03-14T08:45:00;12.90;99.90
18894;DHT22;9579;49.488;8.226;2023-03-14T08:47:48;13.50;99.90
18894;DHT22;9579;49.488;8.226;2023-03-14T08:50:38;12.50;99.90
18894;DHT22;9579;49.488;8.226;2023-03-14T08:53:28;12.80;99.90
18894;DHT22;9579;49.488;8.226;2023-03-14T08:56:25;12.90;99.90
18894;DHT22;9579;49.488;8.226;2023-03-14T08:59:17;12.60;99.90
18894;DHT22;9579;49.488;8.226;2023-03-14T09:02:08;14.50;99.90
18894;DHT22;9579;49.488;8.226;2023-03-14T09:04:58;13.10;99.90
18894;DHT22;9579;49.488;8.226;2023-03-14T09:07:49;13.40;99.90
18894;DHT22;9579;49.488;8.226;2023-03-14T09:10:37;14.30;99.90
18894;DHT22;9579;49.488;8.226;2023-03-14T09:13:25;13.70;99.90
18894;DHT22;9579;49.488;8.226;2023-03-14T09:16:20;13.30;99.90
18894;DHT22;9579;49.488;8.226;2023-03-14T09:24:19;14.20;99.90
18894;DHT22;9579;49.488;8.226;2023-03-14T09:27:07;14.20;99.90
18894;DHT22;9579;49.488;8.226;2023-03-14T09:32:34;13.90;99.90
18894;DHT22;9579;49.488;8.226;2023-03-14T09:35:22;15.60;99.90
18894;DHT22;9579;49.488;8.226;2023-03-14T09:38:10;13.60;99.90
18894;DHT22;9579;49.488;8.226;2023-03-14T09:40:59;13.80;99.90
18894;DHT22;9579;49.488;8.226;2023-03-14T09:43:48;14.10;99.90
18894;DHT22;9579;49.488;8.226;2023-03-14T09:46:38;13.50;99.90
18894;DHT22;9579;49.488;8.226;2023-03-14T09:52:12;13.30;99.90
18894;DHT22;9579;49.488;8.226;2023-03-14T09:55:03;14.60;99.90
18894;DHT22;9579;49.488;8.226;2023-03-14T09:57:56;13.20;99.90
18894;DHT22;9579;49.488;8.226;2023-03-14T10:00:47;13.20;99.90
18894;DHT22;9579;49.488;8.226;2023-03-14T10:03:39;14.00;99.90
18894;DHT22;9579;49.488;8.226;2023-03-14T10:06:32;13.90;99.90
18894;DHT22;9579;49.488;8.226;2023-03-14T10:09:23;15.10;99.90
18894;DHT22;9579;49.488;8.226;2023-03-14T10:12:11;12.90;99.90
18894;DHT22;9579;49.488;8.226;2023-03-14T10:20:26;13.40;99.90
18894;DHT22;9579;49.488;8.226;2023-03-14T10:50:29;13.10;99.90
18894;DHT22;9579;49.488;8.226;2023-03-14T11:04:40;13.10;99.90
18894;DHT22;9579;49.488;8.226;2023-03-14T11:07:52;11.90;99.90
18894;DHT22;9579;49.488;8.226;2023-03-14T11:10:31;12.90;99.90
18894;DHT22;9579;49.488;8.226;2023-03-14T11:16:01;13.40;99.90
18894;DHT22;9579;49.488;8.226;2023-03-14T11:19:00;13.30;99.90
18894;DHT22;9579;49.488;8.226;2023-03-14T11:21:54;13.20;99.90
18894;DHT22;9579;49.488;8.226;2023-03-14T11:24:55;13.00;99.90
18894;DHT22;9579;49.488;8.226;2023-03-14T11:27:54;12.90;99.90
18894;DHT22;9579;49.488;8.226;2023-03-14T11:30:49;12.80;99.90
18894;DHT22;9579;49.488;8.226;2023-03-14T11:33:38;12.60;99.90
18894;DHT22;9579;49.488;8.226;2023-03-14T11:36:33;12.50;99.90
18894;DHT22;9579;49.488;8.226;2023-03-14T11:39:22;12.40;99.90
18894;DHT22;9579;49.488;8.226;2023-03-14T11:42:14;12.30;99.90
18894;DHT22;9579;49.488;8.226;2023-03-14T11:45:03;12.30;99.90
18894;DHT22;9579;49.488;8.226;2023-03-14T11:47:55;12.10;99.90
18894;DHT22;9579;49.488;8.226;2023-03-14T11:50:45;12.00;99.90
18894;DHT22;9579;49.488;8.226;2023-03-14T11:53:45;11.80;99.90
18894;DHT22;9579;49.488;8.226;2023-03-14T11:56:39;11.80;99.90
18894;DHT22;9579;49.488;8.226;2023-03-14T11:59:31;11.80;99.90
18894;DHT22;9579;49.488;8.226;2023-03-14T12:02:24;11.80;99.90
18894;DHT22;9579;49.488;8.226;2023-03-14T12:05:32;11.60;99.90
18894;DHT22;9579;49.488;8.226;2023-03-14T12:11:41;11.40;99.90
18894;DHT22;9579;49.488;8.226;2023-03-14T12:14:32;11.30;99.90
18894;DHT22;9579;49.488;8.226;2023-03-14T12:17:21;11.20;99.90
18894;DHT22;9579;49.488;8.226;2023-03-14T12:20:16;11.20;99.90
18894;DHT22;9579;49.488;8.226;2023-03-14T12:23:05;11.10;99.90
18894;DHT22;9579;49.488;8.226;2023-03-14T12:26:14;11.10;99.90
18894;DHT22;9579;49.488;8.226;2023-03-14T12:29:14;11.10;99.90
18894;DHT22;9579;49.488;8.226;2023-03-14T12:32:22;11.20;99.90
18894;DHT22;9579;49.488;8.226;2023-03-14T12:35:35;11.30;99.90
18894;DHT22;9579;49.488;8.226;2023-03-14T12:38:28;11.30;99.90
18894;DHT22;9579;49.488;8.226;2023-03-14T12:41:20;11.50;99.90
18894;DHT22;9579;49.488;8.226;2023-03-14T12:44:37;11.50;99.90
18894;DHT22;9579;49.488;8.226;2023-03-14T12:47:44;11.70;99.90
18894;DHT22;9579;49.488;8.226;2023-03-14T12:50:40;11.80;99.90
18894;DHT22;9579;49.488;8.226;2023-03-14T12:54:02;11.90;99.90
18894;DHT22;9579;49.488;8.226;2023-03-14T12:57:09;11.80;99.90
18894;DHT22;9579;49.488;8.226;2023-03-14T12:59:58;11.60;99.90
18894;DHT22;9579;49.488;8.226;2023-03-14T13:02:49;11.30;99.90
18894;DHT22;9579;49.488;8.226;2023-03-14T13:05:40;11.10;99.90
18894;DHT22;9579;49.488;8.226;2023-03-14T13:08:39;11.10;99.90
18894;DHT22;9579;49.488;8.226;2023-03-14T13:11:27;11.20;99.90
18894;DHT22;9579;49.488;8.226;2023-03-14T13:14:14;11.20;99.90
18894;DHT22;9579;49.488;8.226;2023-03-14T13:17:02;11.30;99.90
18894;DHT22;9579;49.488;8.226;2023-03-14T13:19:53;11.30;99.90
18894;DHT22;9579;49.488;8.226;2023-03-14T13:22:46;11.40;99.90
18894;DHT22;9579;49.488;8.226;2023-03-14T13:25:35;11.40;99.90
18894;DHT22;9579;49.488;8.226;2023-03-14T13:28:22;11.50;99.90
18894;DHT22;9579;49.488;8.226;2023-03-14T13:31:23;11.70;99.90
18894;DHT22;9579;49.488;8.226;2023-03-14T13:34:10;11.90;98.30
18894;DHT22;9579;49.488;8.226;2023-03-14T13:36:59;11.60;98.30
18894;DHT22;9579;49.488;8.226;2023-03-14T13:39:49;11.60;97.70
18894;DHT22;9579;49.488;8.226;2023-03-14T13:42:37;11.40;98.00
18894;DHT22;9579;49.488;8.226;2023-03-14T13:45:24;11.30;98.90
18894;DHT22;9579;49.488;8.226;2023-03-14T13:48:12;11.40;99.30
18894;DHT22;9579;49.488;8.226;2023-03-14T13:51:04;11.00;99.90
18894;DHT22;9579;49.488;8.226;2023-03-14T13:53:54;11.00;97.80
18894;DHT22;9579;49.488;8.226;2023-03-14T13:56:42;11.50;97.90
18894;DHT22;9579;49.488;8.226;2023-03-14T13:59:30;12.20;96.40
18894;DHT22;9579;49.488;8.226;2023-03-14T14:02:18;12.50;94.70
18894;DHT22;9579;49.488;8.226;2023-03-14T14:05:06;12.70;94.30
18894;DHT22;9579;49.488;8.226;2023-03-14T14:07:53;13.00;94.40
18894;DHT22;9579;49.488;8.226;2023-03-14T14:10:42;13.50;93.50
18894;DHT22;9579;49.488;8.226;2023-03-14T14:13:31;14.00;93.20
18894;DHT22;9579;49.488;8.226;2023-03-14T14:16:22;14.50;91.70
18894;DHT22;9579;49.488;8.226;2023-03-14T14:19:11;14.60;90.50
18894;DHT22;9579;49.488;8.226;2023-03-14T14:21:59;14.40;88.50
18894;DHT22;9579;49.488;8.226;2023-03-14T14:24:46;14.50;89.00
18894;DHT22;9579;49.488;8.226;2023-03-14T14:27:37;14.50;86.00
18894;DHT22;9579;49.488;8.226;2023-03-14T14:30:29;14.50;84.90
18894;DHT22;9579;49.488;8.226;2023-03-14T14:33:20;14.50;82.60
18894;DHT22;9579;49.488;8.226;2023-03-14T14:36:16;14.20;81.70
18894;DHT22;9579;49.488;8.226;2023-03-14T14:39:09;14.30;83.50
18894;DHT22;9579;49.488;8.226;2023-03-14T14:41:58;14.40;81.70
18894;DHT22;9579;49.488;8.226;2023-03-14T14:44:52;14.20;82.80
18894;DHT22;9579;49.488;8.226;2023-03-14T14:47:49;14.20;84.40
18894;DHT22;9579;49.488;8.226;2023-03-14T14:50:39;14.30;83.20
18894;DHT22;9579;49.488;8.226;2023-03-14T14:53:29;14.70;85.20
18894;DHT22;9579;49.488;8.226;2023-03-14T14:56:19;15.00;82.30
18894;DHT22;9579;49.488;8.226;2023-03-14T14:59:20;14.80;79.70
18894;DHT22;9579;49.488;8.226;2023-03-14T15:02:30;14.50;80.50
18894;DHT22;9579;49.488;8.226;2023-03-14T15:05:21;13.90;80.00
18894;DHT22;9579;49.488;8.226;2023-03-14T15:08:09;13.50;80.80
18894;DHT22;9579;49.488;8.226;2023-03-14T15:10:57;13.10;81.50
18894;DHT22;9579;49.488;8.226;2023-03-14T15:13:45;12.90;80.90
18894;DHT22;9579;49.488;8.226;2023-03-14T15:16:33;12.60;82.20
18894;DHT22;9579;49.488;8.226;2023-03-14T15:19:26;12.50;83.60
18894;DHT22;9579;49.488;8.226;2023-03-14T15:22:15;12.50;82.90
18894;DHT22;9579;49.488;8.226;2023-03-14T15:25:03;12.40;82.80
18894;DHT22;9579;49.488;8.226;2023-03-14T15:27:51;12.30;83.80
18894;DHT22;9579;49.488;8.226;2023-03-14T15:30:42;12.40;82.80
18894;DHT22;9579;49.488;8.226;2023-03-14T15:33:30;12.00;82.80
18894;DHT22;9579;49.488;8.226;2023-03-14T15:36:30;12.00;82.20
18894;DHT22;9579;49.488;8.226;2023-03-14T15:39:18;11.90;82.60
18894;DHT22;9579;49.488;8.226;2023-03-14T15:42:06;11.90;83.30
18894;DHT22;9579;49.488;8.226;2023-03-14T15:44:53;11.90;83.70
18894;DHT22;9579;49.488;8.226;2023-03-14T15:47:40;11.90;84.10
18894;DHT22;9579;49.488;8.226;2023-03-14T15:50:27;11.80;84.40
18894;DHT22;9579;49.488;8.226;2023-03-14T15:53:16;11.90;83.80
18894;DHT22;9579;49.488;8.226;2023-03-14T15:56:03;11.80;84.20
18894;DHT22;9579;49.488;8.226;2023-03-14T15:58:51;11.80;85.70
18894;DHT22;9579;49.488;8.226;2023-03-14T16:01:38;12.00;86.30
18894;DHT22;9579;49.488;8.226;2023-03-14T16:04:25;11.90;86.00
18894;DHT22;9579;49.488;8.226;2023-03-14T16:07:12;11.80;85.90
18894;DHT22;9579;49.488;8.226;2023-03-14T16:10:00;11.90;87.40
18894;DHT22;9579;49.488;8.226;2023-03-14T16:12:49;11.90;86.90
18894;DHT22;9579;49.488;8.226;2023-03-14T16:15:37;11.80;86.50
18894;DHT22;9579;49.488;8.226;2023-03-14T16:18:25;11.70;88.00
18894;DHT22;9579;49.488;8.226;2023-03-14T16:21:15;11.70;87.70
18894;DHT22;9579;49.488;8.226;2023-03-14T16:24:03;11.60;88.00
18894;DHT22;9579;49.488;8.226;2023-03-14T16:26:53;11.60;88.40
18894;DHT22;9579;49.488;8.226;2023-03-14T16:29:40;11.60;89.60
18894;DHT22;9579;49.488;8.226;2023-03-14T16:32:28;11.60;88.90
18894;DHT22;9579;49.488;8.226;2023-03-14T16:35:15;11.60;88.80
18894;DHT22;9579;49.488;8.226;2023-03-14T16:38:02;11.60;88.40
18894;DHT22;9579;49.488;8.226;2023-03-14T16:40:57;11.60;89.10
18894;DHT22;9579;49.488;8.226;2023-03-14T16:43:46;11.60;89.20
18894;DHT22;9579;49.488;8.226;2023-03-14T16:46:38;11.60;88.40
18894;DHT22;9579;49.488;8.226;2023-03-14T16:49:48;11.80;88.80
18894;DHT22;9579;49.488;8.226;2023-03-14T16:53:01;11.50;89.70
18894;DHT22;9579;49.488;8.226;2023-03-14T16:56:08;11.60;90.00
18894;DHT22;9579;49.488;8.226;2023-03-14T16:59:15;11.60;90.00
18894;DHT22;9579;49.488;8.226;2023-03-14T17:02:24;11.60;90.00
18894;DHT22;9579;49.488;8.226;2023-03-14T17:05:43;11.50;90.20
18894;DHT22;9579;49.488;8.226;2023-03-14T17:08:33;11.50;90.30
18894;DHT22;9579;49.488;8.226;2023-03-14T17:11:20;11.40;90.60
18894;DHT22;9579;49.488;8.226;2023-03-14T17:14:09;11.50;90.90
18894;DHT22;9579;49.488;8.226;2023-03-14T17:16:56;11.50;90.60
18894;DHT22;9579;49.488;8.226;2023-03-14T17:22:18;11.50;91.50
18894;DHT22;9579;49.488;8.226;2023-03-14T17:25:06;12.00;91.90
18894;DHT22;9579;49.488;8.226;2023-03-14T17:27:53;11.40;92.00
18894;DHT22;9579;49.488;8.226;2023-03-14T17:30:42;12.50;93.20
18894;DHT22;9579;49.488;8.226;2023-03-14T17:33:29;11.40;92.60
18894;DHT22;9579;49.488;8.226;2023-03-14T17:36:17;11.90;92.70
18894;DHT22;9579;49.488;8.226;2023-03-14T17:39:05;11.10;92.80
18894;DHT22;9579;49.488;8.226;2023-03-14T17:41:54;12.60;94.20
18894;DHT22;9579;49.488;8.226;2023-03-14T17:44:41;11.70;93.50
18894;DHT22;9579;49.488;8.226;2023-03-14T17:47:30;11.70;93.10
18894;DHT22;9579;49.488;8.226;2023-03-14T17:50:19;11.40;93.50
18894;DHT22;9579;49.488;8.226;2023-03-14T17:53:15;10.70;92.60
18894;DHT22;9579;49.488;8.226;2023-03-14T17:56:18;10.20;91.90
18894;DHT22;9579;49.488;8.226;2023-03-14T17:59:08;11.70;92.20
18894;DHT22;9579;49.488;8.226;2023-03-14T18:01:57;10.50;91.90
18894;DHT22;9579;49.488;8.226;2023-03-14T18:04:50;11.40;92.00
18894;DHT22;9579;49.488;8.226;2023-03-14T18:07:39;11.00;91.80
18894;DHT22;9579;49.488;8.226;2023-03-14T18:10:28;10.30;91.50
18894;DHT22;9579;49.488;8.226;2023-03-14T18:13:18;11.20;92.10
18894;DHT22;9579;49.488;8.226;2023-03-14T18:16:07;10.10;91.30
18894;DHT22;9579;49.488;8.226;2023-03-14T18:18:55;11.20;92.10
18894;DHT22;9579;49.488;8.226;2023-03-14T18:21:46;10.20;91.50
18894;DHT22;9579;49.488;8.226;2023-03-14T18:24:36;11.00;92.40
18894;DHT22;9579;49.488;8.226;2023-03-14T18:27:24;10.30;91.60
18894;DHT22;9579;49.488;8.226;2023-03-14T18:30:13;10.80;91.90
18894;DHT22;9579;49.488;8.226;2023-03-14T18:35:36;10.30;92.50
18894;DHT22;9579;49.488;8.226;2023-03-14T18:38:25;10.40;93.20
18894;DHT22;9579;49.488;8.226;2023-03-14T18:41:14;10.80;94.00
18894;DHT22;9579;49.488;8.226;2023-03-14T18:44:03;10.40;95.00
18894;DHT22;9579;49.488;8.226;2023-03-14T18:46:54;9.70;95.50
18894;DHT22;9579;49.488;8.226;2023-03-14T18:49:43;11.80;96.40
18894;DHT22;9579;49.488;8.226;2023-03-14T18:52:40;10.10;96.60
18894;DHT22;9579;49.488;8.226;2023-03-14T18:55:29;11.60;96.90
18894;DHT22;9579;49.488;8.226;2023-03-14T18:58:18;9.70;96.90
18894;DHT22;9579;49.488;8.226;2023-03-14T19:01:13;9.70;96.30
18894;DHT22;9579;49.488;8.226;2023-03-14T19:04:05;11.20;96.30
18894;DHT22;9579;49.488;8.226;2023-03-14T19:07:00;10.20;96.20
18894;DHT22;9579;49.488;8.226;2023-03-14T19:09:48;10.50;96.50
18894;DHT22;9579;49.488;8.226;2023-03-14T19:12:37;10.20;96.50
18894;DHT22;9579;49.488;8.226;2023-03-14T19:15:24;10.30;97.20
18894;DHT22;9579;49.488;8.226;2023-03-14T19:20:55;10.00;97.80
18894;DHT22;9579;49.488;8.226;2023-03-14T19:26:19;9.60;98.20
18894;DHT22;9579;49.488;8.226;2023-03-14T19:29:09;9.50;98.00
18894;DHT22;9579;49.488;8.226;2023-03-14T19:32:04;9.40;98.20
18894;DHT22;9579;49.488;8.226;2023-03-14T19:34:51;8.60;98.10
18894;DHT22;9579;49.488;8.226;2023-03-14T19:37:39;9.20;98.40
18894;DHT22;9579;49.488;8.226;2023-03-14T19:40:30;8.80;98.50